sensor_id;sensor_type;location;lat;lon;timestamp;temperature;humidity
41256;DHT22;26989;45.524;10.938;2023-08-20T00:01:09;24.40;99.90
41256;DHT22;26989;45.524;10.938;2023-08-20T00:03:40;24.30;99.90
41256;DHT22;26989;45.524;10.938;2023-08-20T00:06:07;24.40;99.90
41256;DHT22;26989;45.524;10.938;2023-08-20T00:08:34;24.40;99.90
41256;DHT22;26989;45.524;10.938;2023-08-20T00:11:02;24.40;99.90
41256;DHT22;26989;45.524;10.938;2023-08-20T00:13:32;24.40;99.90
41256;DHT22;26989;45.524;10.938;2023-08-20T00:15:59;24.50;99.90
41256;DHT22;26989;45.524;10.938;2023-08-20T00:18:26;24.50;99.90
41256;DHT22;26989;45.524;10.938;2023-08-20T00:20:54;24.50;99.90
41256;DHT22;26989;45.524;10.938;2023-08-20T00:23:22;24.60;99.90
41256;DHT22;26989;45.524;10.938;2023-08-20T00:25:49;24.60;99.90
41256;DHT22;26989;45.524;10.938;2023-08-20T00:28:16;24.70;99.90
41256;DHT22;26989;45.524;10.938;2023-08-20T00:30:43;24.70;99.90
41256;DHT22;26989;45.524;10.938;2023-08-20T00:33:10;24.50;99.90
41256;DHT22;26989;45.524;10.938;2023-08-20T00:35:37;24.50;99.90
41256;DHT22;26989;45.524;10.938;2023-08-20T00:38:04;24.50;99.90
41256;DHT22;26989;45.524;10.938;2023-08-20T00:40:31;24.50;99.90
41256;DHT22;26989;45.524;10.938;2023-08-20T00:42:58;24.50;99.90
41256;DHT22;26989;45.524;10.938;2023-08-20T00:45:25;24.50;99.90
41256;DHT22;26989;45.524;10.938;2023-08-20T00:47:53;24.50;99.90
41256;DHT22;26989;45.524;10.938;2023-08-20T00:50:20;24.50;99.90
41256;DHT22;26989;45.524;10.938;2023-08-20T00:52:48;24.60;99.90
41256;DHT22;26989;45.524;10.938;2023-08-20T00:55:15;24.60;99.90
41256;DHT22;26989;45.524;10.938;2023-08-20T00:57:42;24.60;99.90
41256;DHT22;26989;45.524;10.938;2023-08-20T01:00:09;24.60;99.90
41256;DHT22;26989;45.524;10.938;2023-08-20T01:02:38;24.60;99.90
41256;DHT22;26989;45.524;10.938;2023-08-20T01:05:08;24.50;99.90
41256;DHT22;26989;45.524;10.938;2023-08-20T01:10:36;24.60;99.90
41256;DHT22;26989;45.524;10.938;2023-08-20T01:13:07;24.60;99.90
41256;DHT22;26989;45.524;10.938;2023-08-20T01:15:34;24.60;99.90
41256;DHT22;26989;45.524;10.938;2023-08-20T01:18:01;24.40;99.90
41256;DHT22;26989;45.524;10.938;2023-08-20T01:20:41;24.40;99.90
41256;DHT22;26989;45.524;10.938;2023-08-20T01:26:16;24.40;99.90
41256;DHT22;26989;45.524;10.938;2023-08-20T01:28:47;24.50;99.90
41256;DHT22;26989;45.524;10.938;2023-08-20T01:31:15;24.50;99.90
41256;DHT22;26989;45.524;10.938;2023-08-20T01:33:42;24.50;99.90
41256;DHT22;26989;45.524;10.938;2023-08-20T01:36:09;24.50;99.90
41256;DHT22;26989;45.524;10.938;2023-08-20T01:38:37;24.40;99.90
41256;DHT22;26989;45.524;10.938;2023-08-20T01:41:04;24.40;99.90
41256;DHT22;26989;45.524;10.938;2023-08-20T01:43:31;24.50;99.90
41256;DHT22;26989;45.524;10.938;2023-08-20T01:45:58;24.40;99.90
41256;DHT22;26989;45.524;10.938;2023-08-20T01:48:25;24.50;99.90
41256;DHT22;26989;45.524;10.938;2023-08-20T01:50:52;24.50;99.90
41256;DHT22;26989;45.524;10.938;2023-08-20T01:53:19;24.50;99.90
41256;DHT22;26989;45.524;10.938;2023-08-20T01:55:47;24.50;99.90
41256;DHT22;26989;45.524;10.938;2023-08-20T01:58:13;24.40;99.90
41256;DHT22;26989;45.524;10.938;2023-08-20T02:00:41;24.40;99.90
41256;DHT22;26989;45.524;10.938;2023-08-20T02:03:08;24.40;99.90
41256;DHT22;26989;45.524;10.938;2023-08-20T02:05:35;24.30;99.90
41256;DHT22;26989;45.524;10.938;2023-08-20T02:08:02;24.40;99.90
41256;DHT22;26989;45.524;10.938;2023-08-20T02:10:29;24.40;99.90
41256;DHT22;26989;45.524;10.938;2023-08-20T02:12:56;24.40;99.90
41256;DHT22;26989;45.524;10.938;2023-08-20T02:15:23;24.40;99.90
41256;DHT22;26989;45.524;10.938;2023-08-20T02:17:50;24.40;99.90
41256;DHT22;26989;45.524;10.938;2023-08-20T02:20:17;24.50;99.90
41256;DHT22;26989;45.524;10.938;2023-08-20T02:22:44;24.50;99.90
41256;DHT22;26989;45.524;10.938;2023-08-20T02:25:12;24.40;99.90
41256;DHT22;26989;45.524;10.938;2023-08-20T02:27:38;24.40;99.90
41256;DHT22;26989;45.524;10.938;2023-08-20T02:30:06;24.50;99.90
41256;DHT22;26989;45.524;10.938;2023-08-20T02:32:33;24.50;99.90
41256;DHT22;26989;45.524;10.938;2023-08-20T02:35:00;24.50;99.90
41256;DHT22;26989;45.524;10.938;2023-08-20T02:37:27;24.50;99.90
41256;DHT22;26989;45.524;10.938;2023-08-20T02:39:54;24.60;99.90
41256;DHT22;26989;45.524;10.938;2023-08-20T02:42:21;24.50;99.90
41256;DHT22;26989;45.524;10.938;2023-08-20T02:44:48;24.50;99.90
41256;DHT22;26989;45.524;10.938;2023-08-20T02:47:15;24.40;99.90
41256;DHT22;26989;45.524;10.938;2023-08-20T02:49:41;24.40;99.90
41256;DHT22;26989;45.524;10.938;2023-08-20T02:52:08;24.50;99.90
41256;DHT22;26989;45.524;10.938;2023-08-20T02:54:35;24.60;99.90
41256;DHT22;26989;45.524;10.938;2023-08-20T02:57:02;24.50;99.90
41256;DHT22;26989;45.524;10.938;2023-08-20T02:59:29;24.40;99.90
41256;DHT22;26989;45.524;10.938;2023-08-20T03:01:56;24.30;99.90
41256;DHT22;26989;45.524;10.938;2023-08-20T03:04:23;24.30;99.90
41256;DHT22;26989;45.524;10.938;2023-08-20T03:06:50;24.40;99.90
41256;DHT22;26989;45.524;10.938;2023-08-20T03:09:17;24.30;99.90
41256;DHT22;26989;45.524;10.938;2023-08-20T03:11:43;24.20;99.90
41256;DHT22;26989;45.524;10.938;2023-08-20T03:14:10;24.40;99.90
41256;DHT22;26989;45.524;10.938;2023-08-20T03:16:37;24.50;99.90
41256;DHT22;26989;45.524;10.938;2023-08-20T03:19:04;24.40;99.90
41256;DHT22;26989;45.524;10.938;2023-08-20T03:21:31;24.40;99.90
41256;DHT22;26989;45.524;10.938;2023-08-20T03:23:58;24.30;99.90
41256;DHT22;26989;45.524;10.938;2023-08-20T03:26:25;24.30;99.90
41256;DHT22;26989;45.524;10.938;2023-08-20T03:28:52;24.40;99.90
41256;DHT22;26989;45.524;10.938;2023-08-20T03:31:18;24.30;99.90
41256;DHT22;26989;45.524;10.938;2023-08-20T03:33:45;24.10;99.90
41256;DHT22;26989;45.524;10.938;2023-08-20T03:36:12;24.10;99.90
41256;DHT22;26989;45.524;10.938;2023-08-20T03:38:39;24.10;99.90
41256;DHT22;26989;45.524;10.938;2023-08-20T03:41:06;24.20;99.90
41256;DHT22;26989;45.524;10.938;2023-08-20T03:43:33;24.20;99.90
41256;DHT22;26989;45.524;10.938;2023-08-20T03:46:01;24.30;99.90
41256;DHT22;26989;45.524;10.938;2023-08-20T03:48:28;24.20;99.90
41256;DHT22;26989;45.524;10.938;2023-08-20T03:50:56;24.20;99.90
41256;DHT22;26989;45.524;10.938;2023-08-20T03:53:23;24.10;99.90
41256;DHT22;26989;45.524;10.938;2023-08-20T03:55:50;24.10;99.90
41256;DHT22;26989;45.524;10.938;2023-08-20T03:58:17;24.10;99.90
41256;DHT22;26989;45.524;10.938;2023-08-20T04:00:44;24.00;99.90
41256;DHT22;26989;45.524;10.938;2023-08-20T04:03:11;23.90;99.90
41256;DHT22;26989;45.524;10.938;2023-08-20T04:05:39;23.90;99.90
41256;DHT22;26989;45.524;10.938;2023-08-20T04:08:06;23.90;99.90
41256;DHT22;26989;45.524;10.938;2023-08-20T04:10:33;23.90;99.90
41256;DHT22;26989;45.524;10.938;2023-08-20T04:13:00;23.80;99.90
41256;DHT22;26989;45.524;10.938;2023-08-20T04:15:27;23.90;99.90
41256;DHT22;26989;45.524;10.938;2023-08-20T04:17:54;23.80;99.90
41256;DHT22;26989;45.524;10.938;2023-08-20T04:20:21;23.80;99.90
41256;DHT22;26989;45.524;10.938;2023-08-20T04:22:48;23.80;99.90
41256;DHT22;26989;45.524;10.938;2023-08-20T04:25:15;23.80;99.90
41256;DHT22;26989;45.524;10.938;2023-08-20T04:27:42;23.80;99.90
41256;DHT22;26989;45.524;10.938;2023-08-20T04:30:09;23.80;99.90
41256;DHT22;26989;45.524;10.938;2023-08-20T04:32:36;23.90;99.90
41256;DHT22;26989;45.524;10.938;2023-08-20T04:35:04;23.90;99.90
41256;DHT22;26989;45.524;10.938;2023-08-20T04:37:31;23.80;99.90
41256;DHT22;26989;45.524;10.938;2023-08-20T04:39:58;23.90;99.90
41256;DHT22;26989;45.524;10.938;2023-08-20T04:42:25;24.00;99.90
41256;DHT22;26989;45.524;10.938;2023-08-20T04:44:52;24.10;99.90
41256;DHT22;26989;45.524;10.938;2023-08-20T04:47:19;24.20;99.90
41256;DHT22;26989;45.524;10.938;2023-08-20T04:49:45;24.20;99.90
41256;DHT22;26989;45.524;10.938;2023-08-20T04:52:12;24.30;99.90
41256;DHT22;26989;45.524;10.938;2023-08-20T04:54:39;24.40;99.90
41256;DHT22;26989;45.524;10.938;2023-08-20T04:57:06;24.40;99.90
41256;DHT22;26989;45.524;10.938;2023-08-20T04:59:33;24.30;99.90
41256;DHT22;26989;45.524;10.938;2023-08-20T05:02:00;24.30;99.90
41256;DHT22;26989;45.524;10.938;2023-08-20T05:04:27;24.40;99.90
41256;DHT22;26989;45.524;10.938;2023-08-20T05:06:54;24.50;99.90
41256;DHT22;26989;45.524;10.938;2023-08-20T05:09:21;24.50;99.90
41256;DHT22;26989;45.524;10.938;2023-08-20T05:11:48;24.50;99.90
41256;DHT22;26989;45.524;10.938;2023-08-20T05:14:15;24.50;99.90
41256;DHT22;26989;45.524;10.938;2023-08-20T05:16:42;25.10;99.90
41256;DHT22;26989;45.524;10.938;2023-08-20T05:19:09;25.50;99.90
41256;DHT22;26989;45.524;10.938;2023-08-20T05:21:36;26.40;99.90
41256;DHT22;26989;45.524;10.938;2023-08-20T05:24:03;26.20;99.90
41256;DHT22;26989;45.524;10.938;2023-08-20T05:26:30;26.10;99.90
41256;DHT22;26989;45.524;10.938;2023-08-20T05:28:57;26.10;99.90
41256;DHT22;26989;45.524;10.938;2023-08-20T05:31:24;27.10;99.90
41256;DHT22;26989;45.524;10.938;2023-08-20T05:33:51;27.60;99.90
41256;DHT22;26989;45.524;10.938;2023-08-20T05:36:18;27.80;99.90
41256;DHT22;26989;45.524;10.938;2023-08-20T05:38:45;28.70;99.90
41256;DHT22;26989;45.524;10.938;2023-08-20T05:41:11;28.00;99.90
41256;DHT22;26989;45.524;10.938;2023-08-20T05:43:38;27.90;99.90
41256;DHT22;26989;45.524;10.938;2023-08-20T05:46:05;28.70;99.90
41256;DHT22;26989;45.524;10.938;2023-08-20T05:48:32;29.70;99.10
41256;DHT22;26989;45.524;10.938;2023-08-20T05:50:59;29.90;98.10
41256;DHT22;26989;45.524;10.938;2023-08-20T05:53:26;30.00;98.20
41256;DHT22;26989;45.524;10.938;2023-08-20T05:55:53;30.90;98.00
41256;DHT22;26989;45.524;10.938;2023-08-20T05:58:20;31.00;97.80
41256;DHT22;26989;45.524;10.938;2023-08-20T06:00:47;32.40;97.00
41256;DHT22;26989;45.524;10.938;2023-08-20T06:03:14;34.00;95.60
41256;DHT22;26989;45.524;10.938;2023-08-20T06:05:40;33.30;95.70
41256;DHT22;26989;45.524;10.938;2023-08-20T06:08:07;31.60;96.20
41256;DHT22;26989;45.524;10.938;2023-08-20T06:10:34;33.10;96.50
41256;DHT22;26989;45.524;10.938;2023-08-20T06:13:01;33.50;95.10
41256;DHT22;26989;45.524;10.938;2023-08-20T06:15:28;33.30;95.30
41256;DHT22;26989;45.524;10.938;2023-08-20T06:17:55;33.40;95.50
41256;DHT22;26989;45.524;10.938;2023-08-20T06:20:22;32.60;96.50
41256;DHT22;26989;45.524;10.938;2023-08-20T06:22:49;32.30;97.10
41256;DHT22;26989;45.524;10.938;2023-08-20T06:25:16;32.10;97.20
41256;DHT22;26989;45.524;10.938;2023-08-20T06:27:42;32.10;97.10
41256;DHT22;26989;45.524;10.938;2023-08-20T06:30:10;32.50;97.00
41256;DHT22;26989;45.524;10.938;2023-08-20T06:32:37;33.00;96.50
41256;DHT22;26989;45.524;10.938;2023-08-20T06:35:04;34.20;95.30
41256;DHT22;26989;45.524;10.938;2023-08-20T06:37:31;35.00;94.30
41256;DHT22;26989;45.524;10.938;2023-08-20T06:39:59;36.40;92.80
41256;DHT22;26989;45.524;10.938;2023-08-20T06:42:26;37.30;91.90
41256;DHT22;26989;45.524;10.938;2023-08-20T06:44:53;37.30;92.00
41256;DHT22;26989;45.524;10.938;2023-08-20T06:47:20;36.90;91.40
41256;DHT22;26989;45.524;10.938;2023-08-20T06:49:47;38.00;91.00
41256;DHT22;26989;45.524;10.938;2023-08-20T06:52:13;38.30;90.50
41256;DHT22;26989;45.524;10.938;2023-08-20T06:54:40;34.10;92.70
41256;DHT22;26989;45.524;10.938;2023-08-20T06:57:07;33.10;93.40
41256;DHT22;26989;45.524;10.938;2023-08-20T06:59:34;32.20;94.80
41256;DHT22;26989;45.524;10.938;2023-08-20T07:02:01;31.80;95.20
41256;DHT22;26989;45.524;10.938;2023-08-20T07:04:30;31.50;95.20
41256;DHT22;26989;45.524;10.938;2023-08-20T07:06:56;31.20;95.40
41256;DHT22;26989;45.524;10.938;2023-08-20T07:09:24;31.00;95.60
41256;DHT22;26989;45.524;10.938;2023-08-20T07:11:51;30.60;95.40
41256;DHT22;26989;45.524;10.938;2023-08-20T07:14:18;30.60;95.90
41256;DHT22;26989;45.524;10.938;2023-08-20T07:16:45;30.50;96.20
41256;DHT22;26989;45.524;10.938;2023-08-20T07:19:12;30.60;96.30
41256;DHT22;26989;45.524;10.938;2023-08-20T07:21:39;30.50;96.70
41256;DHT22;26989;45.524;10.938;2023-08-20T07:24:06;30.50;96.20
41256;DHT22;26989;45.524;10.938;2023-08-20T07:26:33;30.40;96.10
41256;DHT22;26989;45.524;10.938;2023-08-20T07:29:00;30.40;96.30
41256;DHT22;26989;45.524;10.938;2023-08-20T07:31:28;30.40;96.30
41256;DHT22;26989;45.524;10.938;2023-08-20T07:33:57;30.50;96.50
41256;DHT22;26989;45.524;10.938;2023-08-20T07:36:29;30.50;96.00
41256;DHT22;26989;45.524;10.938;2023-08-20T07:38:56;30.60;96.60
41256;DHT22;26989;45.524;10.938;2023-08-20T07:41:23;30.60;96.40
41256;DHT22;26989;45.524;10.938;2023-08-20T07:43:50;30.70;96.30
41256;DHT22;26989;45.524;10.938;2023-08-20T07:46:17;30.70;96.30
41256;DHT22;26989;45.524;10.938;2023-08-20T07:48:44;30.60;96.20
41256;DHT22;26989;45.524;10.938;2023-08-20T07:51:11;30.80;96.00
41256;DHT22;26989;45.524;10.938;2023-08-20T07:53:38;30.60;95.90
41256;DHT22;26989;45.524;10.938;2023-08-20T07:56:05;30.80;95.80
41256;DHT22;26989;45.524;10.938;2023-08-20T07:58:32;30.70;95.70
41256;DHT22;26989;45.524;10.938;2023-08-20T08:00:59;30.50;95.70
41256;DHT22;26989;45.524;10.938;2023-08-20T08:03:26;30.40;96.20
41256;DHT22;26989;45.524;10.938;2023-08-20T08:05:54;30.50;96.30
41256;DHT22;26989;45.524;10.938;2023-08-20T08:08:21;30.60;96.50
41256;DHT22;26989;45.524;10.938;2023-08-20T08:10:49;30.60;96.20
41256;DHT22;26989;45.524;10.938;2023-08-20T08:13:19;30.60;96.30
41256;DHT22;26989;45.524;10.938;2023-08-20T08:15:46;30.60;96.60
41256;DHT22;26989;45.524;10.938;2023-08-20T08:18:13;30.70;96.20
41256;DHT22;26989;45.524;10.938;2023-08-20T08:20:40;30.60;96.70
41256;DHT22;26989;45.524;10.938;2023-08-20T08:23:07;30.60;97.10
41256;DHT22;26989;45.524;10.938;2023-08-20T08:25:34;30.50;96.80
41256;DHT22;26989;45.524;10.938;2023-08-20T08:28:01;30.60;97.20
41256;DHT22;26989;45.524;10.938;2023-08-20T08:30:28;30.60;96.50
41256;DHT22;26989;45.524;10.938;2023-08-20T08:32:56;30.40;96.60
41256;DHT22;26989;45.524;10.938;2023-08-20T08:35:23;30.40;96.70
41256;DHT22;26989;45.524;10.938;2023-08-20T08:37:50;30.60;96.90
41256;DHT22;26989;45.524;10.938;2023-08-20T08:40:17;30.70;96.50
41256;DHT22;26989;45.524;10.938;2023-08-20T08:42:48;30.70;96.40
41256;DHT22;26989;45.524;10.938;2023-08-20T08:45:18;30.90;96.80
41256;DHT22;26989;45.524;10.938;2023-08-20T08:47:47;30.80;96.90
41256;DHT22;26989;45.524;10.938;2023-08-20T08:50:14;30.80;95.90
41256;DHT22;26989;45.524;10.938;2023-08-20T08:52:42;30.80;96.00
41256;DHT22;26989;45.524;10.938;2023-08-20T08:55:11;30.80;96.10
41256;DHT22;26989;45.524;10.938;2023-08-20T08:57:38;30.80;96.00
41256;DHT22;26989;45.524;10.938;2023-08-20T09:00:05;30.90;96.20
41256;DHT22;26989;45.524;10.938;2023-08-20T09:02:33;31.00;96.20
41256;DHT22;26989;45.524;10.938;2023-08-20T09:04:59;30.90;96.10
41256;DHT22;26989;45.524;10.938;2023-08-20T09:07:27;30.90;96.10
41256;DHT22;26989;45.524;10.938;2023-08-20T09:09:58;30.80;96.60
41256;DHT22;26989;45.524;10.938;2023-08-20T09:12:28;30.90;95.90
41256;DHT22;26989;45.524;10.938;2023-08-20T09:14:55;30.80;96.10
41256;DHT22;26989;45.524;10.938;2023-08-20T09:17:28;30.90;96.20
41256;DHT22;26989;45.524;10.938;2023-08-20T09:19:56;30.90;95.90
41256;DHT22;26989;45.524;10.938;2023-08-20T09:22:26;30.90;95.60
41256;DHT22;26989;45.524;10.938;2023-08-20T09:24:55;30.90;96.20
41256;DHT22;26989;45.524;10.938;2023-08-20T09:27:22;31.00;95.60
41256;DHT22;26989;45.524;10.938;2023-08-20T09:29:51;30.90;95.60
41256;DHT22;26989;45.524;10.938;2023-08-20T09:32:26;31.00;95.50
41256;DHT22;26989;45.524;10.938;2023-08-20T09:34:55;30.80;96.00
41256;DHT22;26989;45.524;10.938;2023-08-20T09:37:23;31.00;96.10
41256;DHT22;26989;45.524;10.938;2023-08-20T09:39:51;31.10;96.30
41256;DHT22;26989;45.524;10.938;2023-08-20T09:42:18;31.20;96.30
41256;DHT22;26989;45.524;10.938;2023-08-20T09:44:46;31.30;96.00
41256;DHT22;26989;45.524;10.938;2023-08-20T09:47:17;31.30;95.70
41256;DHT22;26989;45.524;10.938;2023-08-20T09:49:47;31.30;95.70
41256;DHT22;26989;45.524;10.938;2023-08-20T09:52:41;31.40;96.10
41256;DHT22;26989;45.524;10.938;2023-08-20T09:55:17;31.50;95.70
41256;DHT22;26989;45.524;10.938;2023-08-20T09:57:48;31.40;95.70
41256;DHT22;26989;45.524;10.938;2023-08-20T10:00:15;31.40;95.80
41256;DHT22;26989;45.524;10.938;2023-08-20T10:02:42;31.30;95.90
41256;DHT22;26989;45.524;10.938;2023-08-20T10:05:11;31.50;95.80
41256;DHT22;26989;45.524;10.938;2023-08-20T10:07:38;31.50;95.80
41256;DHT22;26989;45.524;10.938;2023-08-20T10:10:07;31.50;96.00
41256;DHT22;26989;45.524;10.938;2023-08-20T10:12:37;31.60;95.30
41256;DHT22;26989;45.524;10.938;2023-08-20T10:15:08;31.40;95.60
41256;DHT22;26989;45.524;10.938;2023-08-20T10:17:37;31.30;95.70
41256;DHT22;26989;45.524;10.938;2023-08-20T10:20:06;31.50;95.60
41256;DHT22;26989;45.524;10.938;2023-08-20T10:22:39;31.60;95.30
41256;DHT22;26989;45.524;10.938;2023-08-20T10:25:31;31.60;95.30
41256;DHT22;26989;45.524;10.938;2023-08-20T10:28:21;31.70;95.40
41256;DHT22;26989;45.524;10.938;2023-08-20T10:31:16;31.60;95.10
41256;DHT22;26989;45.524;10.938;2023-08-20T10:33:55;31.60;95.60
41256;DHT22;26989;45.524;10.938;2023-08-20T10:36:26;31.60;95.60
41256;DHT22;26989;45.524;10.938;2023-08-20T10:38:55;31.40;95.20
41256;DHT22;26989;45.524;10.938;2023-08-20T10:41:28;31.50;95.50
41256;DHT22;26989;45.524;10.938;2023-08-20T10:43:59;31.50;95.50
41256;DHT22;26989;45.524;10.938;2023-08-20T10:46:28;31.60;95.70
41256;DHT22;26989;45.524;10.938;2023-08-20T10:48:57;31.70;95.30
41256;DHT22;26989;45.524;10.938;2023-08-20T10:51:30;31.80;95.40
41256;DHT22;26989;45.524;10.938;2023-08-20T10:59:22;31.90;94.90
41256;DHT22;26989;45.524;10.938;2023-08-20T11:01:51;32.00;95.20
41256;DHT22;26989;45.524;10.938;2023-08-20T11:04:20;32.00;94.80
41256;DHT22;26989;45.524;10.938;2023-08-20T11:06:50;32.00;95.40
41256;DHT22;26989;45.524;10.938;2023-08-20T11:09:19;32.20;95.60
41256;DHT22;26989;45.524;10.938;2023-08-20T11:11:47;32.30;94.90
41256;DHT22;26989;45.524;10.938;2023-08-20T11:14:15;32.40;94.80
41256;DHT22;26989;45.524;10.938;2023-08-20T11:16:43;32.20;94.90
41256;DHT22;26989;45.524;10.938;2023-08-20T11:19:13;32.40;94.90
41256;DHT22;26989;45.524;10.938;2023-08-20T11:21:41;32.20;94.90
41256;DHT22;26989;45.524;10.938;2023-08-20T11:24:09;32.10;95.00
41256;DHT22;26989;45.524;10.938;2023-08-20T11:26:39;32.30;95.00
41256;DHT22;26989;45.524;10.938;2023-08-20T11:29:07;32.20;94.50
41256;DHT22;26989;45.524;10.938;2023-08-20T11:31:36;31.80;94.80
41256;DHT22;26989;45.524;10.938;2023-08-20T11:34:04;31.60;95.30
41256;DHT22;26989;45.524;10.938;2023-08-20T11:36:31;31.90;95.30
41256;DHT22;26989;45.524;10.938;2023-08-20T11:38:58;32.00;95.30
41256;DHT22;26989;45.524;10.938;2023-08-20T11:41:25;32.20;95.00
41256;DHT22;26989;45.524;10.938;2023-08-20T11:43:53;31.90;94.90
41256;DHT22;26989;45.524;10.938;2023-08-20T11:46:21;31.90;95.00
41256;DHT22;26989;45.524;10.938;2023-08-20T11:49:08;32.00;94.90
41256;DHT22;26989;45.524;10.938;2023-08-20T11:51:42;32.10;94.50
41256;DHT22;26989;45.524;10.938;2023-08-20T11:54:15;31.90;94.60
41256;DHT22;26989;45.524;10.938;2023-08-20T11:56:45;32.10;94.90
41256;DHT22;26989;45.524;10.938;2023-08-20T11:59:14;32.10;94.70
41256;DHT22;26989;45.524;10.938;2023-08-20T12:01:41;32.30;94.80
41256;DHT22;26989;45.524;10.938;2023-08-20T12:04:09;32.40;94.40
41256;DHT22;26989;45.524;10.938;2023-08-20T12:06:37;31.90;94.40
41256;DHT22;26989;45.524;10.938;2023-08-20T12:09:23;31.90;94.70
41256;DHT22;26989;45.524;10.938;2023-08-20T12:11:52;32.10;95.00
41256;DHT22;26989;45.524;10.938;2023-08-20T12:14:19;32.50;94.70
41256;DHT22;26989;45.524;10.938;2023-08-20T12:16:46;32.70;94.10
41256;DHT22;26989;45.524;10.938;2023-08-20T12:19:14;32.90;93.90
41256;DHT22;26989;45.524;10.938;2023-08-20T12:21:41;32.90;94.00
41256;DHT22;26989;45.524;10.938;2023-08-20T12:24:10;32.90;93.90
41256;DHT22;26989;45.524;10.938;2023-08-20T12:26:38;32.90;94.10
41256;DHT22;26989;45.524;10.938;2023-08-20T12:29:06;33.00;93.80
41256;DHT22;26989;45.524;10.938;2023-08-20T12:31:33;33.20;93.70
41256;DHT22;26989;45.524;10.938;2023-08-20T12:34:01;33.30;94.10
41256;DHT22;26989;45.524;10.938;2023-08-20T12:36:28;33.30;93.70
41256;DHT22;26989;45.524;10.938;2023-08-20T12:38:55;33.20;93.80
41256;DHT22;26989;45.524;10.938;2023-08-20T12:41:22;33.20;93.70
41256;DHT22;26989;45.524;10.938;2023-08-20T12:43:49;33.20;93.70
41256;DHT22;26989;45.524;10.938;2023-08-20T12:46:17;33.20;93.50
41256;DHT22;26989;45.524;10.938;2023-08-20T12:48:44;33.20;93.30
41256;DHT22;26989;45.524;10.938;2023-08-20T12:51:11;33.20;94.00
41256;DHT22;26989;45.524;10.938;2023-08-20T12:53:40;33.20;93.50
41256;DHT22;26989;45.524;10.938;2023-08-20T12:56:07;33.20;93.60
41256;DHT22;26989;45.524;10.938;2023-08-20T12:58:34;33.00;93.60
41256;DHT22;26989;45.524;10.938;2023-08-20T13:01:02;32.90;93.90
41256;DHT22;26989;45.524;10.938;2023-08-20T13:03:29;33.00;93.50
41256;DHT22;26989;45.524;10.938;2023-08-20T13:05:57;32.70;93.90
41256;DHT22;26989;45.524;10.938;2023-08-20T13:08:24;33.00;94.20
41256;DHT22;26989;45.524;10.938;2023-08-20T13:10:56;33.50;93.30
41256;DHT22;26989;45.524;10.938;2023-08-20T13:13:24;33.90;92.90
41256;DHT22;26989;45.524;10.938;2023-08-20T13:15:52;33.90;92.90
41256;DHT22;26989;45.524;10.938;2023-08-20T13:18:20;33.70;93.10
41256;DHT22;26989;45.524;10.938;2023-08-20T13:20:54;33.50;92.90
41256;DHT22;26989;45.524;10.938;2023-08-20T13:23:22;33.70;93.20
41256;DHT22;26989;45.524;10.938;2023-08-20T13:25:50;33.30;93.00
41256;DHT22;26989;45.524;10.938;2023-08-20T13:28:17;33.20;93.60
41256;DHT22;26989;45.524;10.938;2023-08-20T13:30:45;32.50;93.90
41256;DHT22;26989;45.524;10.938;2023-08-20T13:33:15;32.80;93.40
41256;DHT22;26989;45.524;10.938;2023-08-20T13:35:42;33.20;93.70
41256;DHT22;26989;45.524;10.938;2023-08-20T13:38:09;33.40;93.70
41256;DHT22;26989;45.524;10.938;2023-08-20T13:40:36;33.70;92.90
41256;DHT22;26989;45.524;10.938;2023-08-20T13:43:03;33.60;92.70
41256;DHT22;26989;45.524;10.938;2023-08-20T13:45:32;34.00;92.50
41256;DHT22;26989;45.524;10.938;2023-08-20T13:47:58;33.60;92.60
41256;DHT22;26989;45.524;10.938;2023-08-20T13:50:26;33.40;93.00
41256;DHT22;26989;45.524;10.938;2023-08-20T13:52:53;33.90;92.80
41256;DHT22;26989;45.524;10.938;2023-08-20T13:55:19;33.70;92.30
41256;DHT22;26989;45.524;10.938;2023-08-20T13:57:48;33.80;92.50
41256;DHT22;26989;45.524;10.938;2023-08-20T14:00:15;34.20;92.60
41256;DHT22;26989;45.524;10.938;2023-08-20T14:02:42;34.20;92.50
41256;DHT22;26989;45.524;10.938;2023-08-20T14:05:09;34.40;92.20
41256;DHT22;26989;45.524;10.938;2023-08-20T14:07:36;34.60;92.10
41256;DHT22;26989;45.524;10.938;2023-08-20T14:10:04;34.60;92.50
41256;DHT22;26989;45.524;10.938;2023-08-20T14:12:31;34.60;92.70
41256;DHT22;26989;45.524;10.938;2023-08-20T14:14:58;34.80;92.00
41256;DHT22;26989;45.524;10.938;2023-08-20T14:17:25;34.90;91.70
41256;DHT22;26989;45.524;10.938;2023-08-20T14:19:52;35.00;91.40
41256;DHT22;26989;45.524;10.938;2023-08-20T14:22:19;35.00;91.60
41256;DHT22;26989;45.524;10.938;2023-08-20T14:24:46;35.10;91.40
41256;DHT22;26989;45.524;10.938;2023-08-20T14:27:13;35.10;91.30
41256;DHT22;26989;45.524;10.938;2023-08-20T14:29:41;35.00;91.80
41256;DHT22;26989;45.524;10.938;2023-08-20T14:32:08;35.00;91.80
41256;DHT22;26989;45.524;10.938;2023-08-20T14:34:35;35.10;91.50
41256;DHT22;26989;45.524;10.938;2023-08-20T14:37:02;35.10;91.60
41256;DHT22;26989;45.524;10.938;2023-08-20T14:39:30;35.00;91.60
41256;DHT22;26989;45.524;10.938;2023-08-20T14:41:58;35.00;91.30
41256;DHT22;26989;45.524;10.938;2023-08-20T14:44:26;35.00;91.50
41256;DHT22;26989;45.524;10.938;2023-08-20T14:46:53;34.80;92.00
41256;DHT22;26989;45.524;10.938;2023-08-20T14:49:20;34.90;92.40
41256;DHT22;26989;45.524;10.938;2023-08-20T14:51:48;35.10;91.50
41256;DHT22;26989;45.524;10.938;2023-08-20T14:54:15;35.20;91.40
41256;DHT22;26989;45.524;10.938;2023-08-20T14:56:42;35.20;91.20
41256;DHT22;26989;45.524;10.938;2023-08-20T14:59:09;35.40;91.50
41256;DHT22;26989;45.524;10.938;2023-08-20T15:01:37;35.50;91.40
41256;DHT22;26989;45.524;10.938;2023-08-20T15:04:03;35.50;90.90
41256;DHT22;26989;45.524;10.938;2023-08-20T15:06:30;35.40;90.90
41256;DHT22;26989;45.524;10.938;2023-08-20T15:08:57;35.20;91.20
41256;DHT22;26989;45.524;10.938;2023-08-20T15:11:24;35.50;91.10
41256;DHT22;26989;45.524;10.938;2023-08-20T15:13:51;35.50;91.30
41256;DHT22;26989;45.524;10.938;2023-08-20T15:16:18;35.60;91.30
41256;DHT22;26989;45.524;10.938;2023-08-20T15:18:45;35.80;91.10
41256;DHT22;26989;45.524;10.938;2023-08-20T15:21:13;36.00;91.00
41256;DHT22;26989;45.524;10.938;2023-08-20T15:23:39;36.10;91.30
41256;DHT22;26989;45.524;10.938;2023-08-20T15:26:06;36.40;90.30
41256;DHT22;26989;45.524;10.938;2023-08-20T15:28:34;35.40;90.80
41256;DHT22;26989;45.524;10.938;2023-08-20T15:31:01;35.50;91.10